createdAt,value
2018-05-27T00:02:02.376Z,8.10
2018-05-27T00:04:29.891Z,7.50
2018-05-27T00:06:57.407Z,7.87
2018-05-27T00:09:24.893Z,7.50
2018-05-27T00:11:52.510Z,8.10
2018-05-27T00:14:20.015Z,7.80
2018-05-27T00:16:47.512Z,8.43
2018-05-27T00:19:15.799Z,8.35
2018-05-27T00:21:43.314Z,8.05
2018-05-27T00:24:10.818Z,7.72
2018-05-27T00:26:38.332Z,7.93
2018-05-27T00:29:05.828Z,8.10
2018-05-27T00:31:33.396Z,8.38
2018-05-27T00:34:00.926Z,8.50
2018-05-27T00:36:29.209Z,8.50
2018-05-27T00:38:57.482Z,8.57
2018-05-27T00:41:25.776Z,8.10
2018-05-27T00:43:53.287Z,8.30
2018-05-27T00:46:20.879Z,8.48
2018-05-27T00:48:49.160Z,8.15
2018-05-27T00:51:17.440Z,8.95
2018-05-27T00:53:57.712Z,8.40
2018-05-27T00:56:25.272Z,8.52
2018-05-27T00:58:52.770Z,8.20
2018-05-27T01:01:20.270Z,9.00
2018-05-27T01:03:48.542Z,8.60
2018-05-27T01:06:16.811Z,8.70
2018-05-27T01:08:45.079Z,8.70
2018-05-27T01:11:12.661Z,8.60
2018-05-27T01:13:40.932Z,9.15
2018-05-27T01:16:09.196Z,8.30
2018-05-27T01:18:37.488Z,8.98
2018-05-27T01:21:05.763Z,8.80
2018-05-27T01:23:34.039Z,8.60
2018-05-27T01:26:02.342Z,8.95
2018-05-27T01:28:29.849Z,8.40
2018-05-27T01:30:57.347Z,9.00
2018-05-27T01:33:24.899Z,9.20
2018-05-27T01:35:52.399Z,8.60
2018-05-27T01:38:19.921Z,8.63
2018-05-27T01:40:47.475Z,8.40
2018-05-27T01:43:14.999Z,8.35
2018-05-27T01:45:42.585Z,8.70
2018-05-27T01:48:10.855Z,8.45
2018-05-27T01:50:39.114Z,8.40
2018-05-27T01:53:06.606Z,8.40
2018-05-27T01:55:34.135Z,8.82
2018-05-27T01:58:01.646Z,9.20
2018-05-27T02:00:29.158Z,9.18
2018-05-27T02:02:57.428Z,8.80
2018-05-27T02:05:24.931Z,9.00
2018-05-27T02:07:52.472Z,9.40
2018-05-27T02:10:20.028Z,8.70
2018-05-27T02:12:47.542Z,8.52
2018-05-27T02:15:15.157Z,8.63
2018-05-27T02:17:42.686Z,8.67
2018-05-27T02:20:10.980Z,8.60
2018-05-27T02:22:39.240Z,8.60
2018-05-27T02:25:07.510Z,8.90
2018-05-27T02:27:35.007Z,8.53
2018-05-27T02:30:02.665Z,10.10
2018-05-27T02:32:30.174Z,8.55
2018-05-27T02:34:57.679Z,9.43
2018-05-27T02:37:25.184Z,8.90
2018-05-27T02:39:52.702Z,8.80
2018-05-27T02:42:20.223Z,8.90
2018-05-27T02:44:48.509Z,8.50
2018-05-27T02:47:16.804Z,9.02
2018-05-27T02:49:44.337Z,9.20
2018-05-27T02:52:12.610Z,9.05
2018-05-27T02:54:40.120Z,9.20
2018-05-27T02:57:07.619Z,8.50
2018-05-27T02:59:35.207Z,8.33
2018-05-27T03:02:02.779Z,9.00
2018-05-27T03:04:30.338Z,8.75
2018-05-27T03:06:57.860Z,8.73
2018-05-27T03:09:26.134Z,9.07
2018-05-27T03:11:54.411Z,8.60
2018-05-27T03:14:21.935Z,8.30
2018-05-27T03:16:49.436Z,8.30
2018-05-27T03:19:17.715Z,8.60
2018-05-27T03:21:45.994Z,8.80
2018-05-27T03:24:14.280Z,8.10
2018-05-27T03:26:41.856Z,7.80
2018-05-27T03:29:09.365Z,8.25
2018-05-27T03:31:36.879Z,8.20
2018-05-27T03:34:04.391Z,8.20
2018-05-27T03:36:31.895Z,7.70
2018-05-27T03:38:59.408Z,8.20
2018-05-27T03:41:26.906Z,8.27
2018-05-27T03:43:54.412Z,7.90
2018-05-27T03:46:21.910Z,8.33
2018-05-27T03:48:49.420Z,8.15
2018-05-27T03:51:16.940Z,7.97
2018-05-27T03:53:44.629Z,7.75
2018-05-27T03:56:12.122Z,7.70
2018-05-27T03:58:40.406Z,7.82
2018-05-27T04:01:08.857Z,8.48
2018-05-27T04:03:36.359Z,7.90
2018-05-27T04:06:15.793Z,7.28
2018-05-27T04:08:43.300Z,7.82
2018-05-27T04:11:10.800Z,7.50
2018-05-27T04:13:38.339Z,7.75
2018-05-27T04:16:05.847Z,7.75
2018-05-27T04:18:33.351Z,7.50
2018-05-27T04:21:00.853Z,8.20
2018-05-27T04:23:28.368Z,7.65
2018-05-27T04:25:55.870Z,7.10
2018-05-27T04:28:23.439Z,7.22
2018-05-27T04:30:50.892Z,7.13
2018-05-27T04:33:18.440Z,6.80
2018-05-27T04:35:46.010Z,6.62
2018-05-27T04:38:13.663Z,7.00
2018-05-27T04:40:41.167Z,6.60
2018-05-27T04:43:08.671Z,6.60
2018-05-27T04:45:36.197Z,6.30
2018-05-27T04:48:03.791Z,6.10
2018-05-27T04:50:32.059Z,6.35
2018-05-27T04:53:00.354Z,6.37
2018-05-27T04:55:27.876Z,6.53
2018-05-27T04:57:55.387Z,7.47
2018-05-27T05:00:22.898Z,6.47
2018-05-27T05:02:51.162Z,6.90
2018-05-27T05:05:18.660Z,7.50
2018-05-27T05:07:46.223Z,7.30
2018-05-27T05:10:13.736Z,7.00
2018-05-27T05:12:41.252Z,7.80
2018-05-27T05:15:08.746Z,8.05
2018-05-27T05:17:36.250Z,7.80
2018-05-27T05:20:03.747Z,8.07
2018-05-27T05:22:31.245Z,8.02
2018-05-27T05:24:59.538Z,9.02
2018-05-27T05:27:27.806Z,8.48
2018-05-27T05:29:56.083Z,8.20
2018-05-27T05:32:24.348Z,8.25
2018-05-27T05:34:52.620Z,8.48
2018-05-27T05:37:20.888Z,9.32
2018-05-27T05:39:48.475Z,8.83
2018-05-27T05:42:16.742Z,8.40
2018-05-27T05:44:45.008Z,13.30
2018-05-27T05:47:12.515Z,8.80
2018-05-27T05:49:40.025Z,8.15
2018-05-27T05:52:08.306Z,7.85
2018-05-27T05:54:36.593Z,8.45
2018-05-27T05:57:04.907Z,7.07
2018-05-27T05:59:32.419Z,7.73
2018-05-27T06:02:00.687Z,7.30
2018-05-27T06:04:28.960Z,7.10
2018-05-27T06:06:56.541Z,7.40
2018-05-27T06:09:24.804Z,7.93
2018-05-27T06:11:53.100Z,8.17
2018-05-27T06:14:20.592Z,8.00
2018-05-27T06:16:48.085Z,7.50
2018-05-27T06:19:15.677Z,7.90
2018-05-27T06:21:43.188Z,7.32
2018-05-27T06:24:10.688Z,7.50
2018-05-27T06:26:38.249Z,7.60
2018-05-27T06:29:05.758Z,7.30
2018-05-27T06:31:33.255Z,7.10
2018-05-27T06:34:01.534Z,7.23
2018-05-27T06:36:29.808Z,7.40
2018-05-27T06:38:58.070Z,7.18
2018-05-27T06:41:25.575Z,6.80
2018-05-27T06:43:53.091Z,7.40
2018-05-27T06:46:21.389Z,6.70
2018-05-27T06:48:48.900Z,6.70
2018-05-27T06:51:16.444Z,6.93
2018-05-27T06:53:44.684Z,6.40
2018-05-27T06:56:12.176Z,7.03
2018-05-27T06:58:39.736Z,6.77
2018-05-27T07:01:07.235Z,6.87
2018-05-27T07:03:34.747Z,7.15
2018-05-27T07:06:02.269Z,7.20
2018-05-27T07:08:29.772Z,7.50
2018-05-27T07:10:57.288Z,7.70
2018-05-27T07:13:24.795Z,8.80
2018-05-27T07:15:52.303Z,7.70
2018-05-27T07:18:19.819Z,8.10
2018-05-27T07:20:48.131Z,7.50
2018-05-27T07:23:16.400Z,7.10
2018-05-27T07:25:44.708Z,6.50
2018-05-27T07:28:12.299Z,7.12
2018-05-27T07:30:39.763Z,7.80
2018-05-27T07:33:07.367Z,7.93
2018-05-27T07:35:34.882Z,7.30
2018-05-27T07:38:02.382Z,6.57
2018-05-27T07:40:29.964Z,7.43
2018-05-27T07:42:57.466Z,7.30
2018-05-27T07:45:24.968Z,6.68
2018-05-27T07:47:52.486Z,6.53
2018-05-27T07:50:20.072Z,6.30
2018-05-27T07:52:47.580Z,7.23
2018-05-27T07:55:15.091Z,6.53
2018-05-27T07:57:42.601Z,6.20
2018-05-27T08:00:10.108Z,7.30
2018-05-27T08:02:38.374Z,7.10
2018-05-27T08:05:05.892Z,8.30
2018-05-27T08:07:33.403Z,6.90
2018-05-27T08:10:01.683Z,8.65
2018-05-27T08:12:29.279Z,6.70
2018-05-27T08:14:56.802Z,7.35
2018-05-27T08:17:24.303Z,6.47
2018-05-27T08:19:51.874Z,6.40
2018-05-27T08:22:19.413Z,6.18
2018-05-27T08:24:46.977Z,6.30
2018-05-27T08:27:14.484Z,6.00
2018-05-27T08:29:41.984Z,6.60
2018-05-27T08:32:10.447Z,7.00
2018-05-27T08:34:38.712Z,6.10
2018-05-27T08:37:06.210Z,5.87
2018-05-27T08:39:33.782Z,6.15
2018-05-27T08:42:01.291Z,5.75
2018-05-27T08:44:28.825Z,5.50
2018-05-27T08:46:56.347Z,6.10
2018-05-27T08:49:23.855Z,5.50
2018-05-27T08:51:51.362Z,5.80
2018-05-27T08:54:18.859Z,6.00
2018-05-27T08:56:46.357Z,6.18
2018-05-27T08:59:13.862Z,5.75
2018-05-27T09:01:41.364Z,5.68
2018-05-27T09:04:08.877Z,5.80
2018-05-27T09:06:36.383Z,5.80
2018-05-27T09:09:03.875Z,6.10
2018-05-27T09:11:31.375Z,5.80
2018-05-27T09:13:58.887Z,5.47
2018-05-27T09:16:26.393Z,5.60
2018-05-27T09:18:53.901Z,5.45
2018-05-27T09:21:21.411Z,5.45
2018-05-27T09:23:48.915Z,5.22
2018-05-27T09:26:16.439Z,6.15
2018-05-27T09:28:43.944Z,5.93
2018-05-27T09:31:11.443Z,6.47
2018-05-27T09:33:38.965Z,5.80
2018-05-27T09:36:06.499Z,5.10
2018-05-27T09:38:34.770Z,5.30
2018-05-27T09:41:03.034Z,5.10
2018-05-27T09:43:31.310Z,5.18
2018-05-27T09:45:58.806Z,5.60
2018-05-27T09:48:26.310Z,5.10
2018-05-27T09:50:53.913Z,5.80
2018-05-27T09:53:21.424Z,5.10
2018-05-27T09:55:48.919Z,5.50
2018-05-27T09:58:17.192Z,4.90
2018-05-27T10:00:45.447Z,5.20
2018-05-27T10:03:12.943Z,5.20
2018-05-27T10:05:40.503Z,5.28
2018-05-27T10:08:08.012Z,5.10
2018-05-27T10:10:35.503Z,5.72
2018-05-27T10:13:03.762Z,5.30
2018-05-27T10:15:31.267Z,5.10
2018-05-27T10:17:58.769Z,5.15
2018-05-27T10:20:26.364Z,5.30
2018-05-27T10:22:53.860Z,5.70
2018-05-27T10:25:21.366Z,5.20
2018-05-27T10:27:49.625Z,5.90
2018-05-27T10:30:17.131Z,5.53
2018-05-27T10:32:44.724Z,5.30
2018-05-27T10:35:12.171Z,5.70
2018-05-27T10:37:39.675Z,5.90
2018-05-27T10:40:07.939Z,6.40
2018-05-27T10:42:35.447Z,5.70
2018-05-27T10:45:02.947Z,6.15
2018-05-27T10:47:31.227Z,5.00
2018-05-27T10:50:00.226Z,5.50
2018-05-27T10:52:28.483Z,5.12
2018-05-27T10:54:56.089Z,5.40
2018-05-27T10:57:23.591Z,4.85
2018-05-27T10:59:51.254Z,5.22
2018-05-27T11:02:18.737Z,5.35
2018-05-27T11:04:47.035Z,4.90
2018-05-27T11:07:14.570Z,5.68
2018-05-27T11:09:42.072Z,5.25
2018-05-27T11:12:09.678Z,5.00
2018-05-27T11:14:37.216Z,5.35
2018-05-27T11:17:04.720Z,5.37
2018-05-27T11:19:32.975Z,5.18
2018-05-27T11:22:00.471Z,5.07
2018-05-27T11:24:27.974Z,4.90
2018-05-27T11:26:55.459Z,4.60
2018-05-27T11:29:23.747Z,4.50
2018-05-27T11:31:51.999Z,4.90
2018-05-27T11:34:19.491Z,4.90
2018-05-27T11:36:46.994Z,4.70
2018-05-27T11:39:14.495Z,5.00
2018-05-27T11:41:42.798Z,4.60
2018-05-27T11:44:10.323Z,4.80
2018-05-27T11:46:38.616Z,4.30
2018-05-27T11:49:06.107Z,4.90
2018-05-27T11:51:33.604Z,4.40
2018-05-27T11:54:01.905Z,4.53
2018-05-27T11:56:29.407Z,4.80
2018-05-27T11:58:56.922Z,4.90
2018-05-27T12:01:24.415Z,4.60
2018-05-27T12:03:51.923Z,4.80
2018-05-27T12:06:20.194Z,4.80
2018-05-27T12:08:47.709Z,4.80
2018-05-27T12:11:15.219Z,4.60
2018-05-27T12:13:43.485Z,4.72
2018-05-27T12:16:10.985Z,4.80
2018-05-27T12:18:38.524Z,4.57
2018-05-27T12:21:06.014Z,4.57
2018-05-27T12:23:33.504Z,4.80
2018-05-27T12:26:01.022Z,4.82
2018-05-27T12:28:28.523Z,4.90
2018-05-27T12:30:56.026Z,4.57
2018-05-27T12:33:23.527Z,4.87
2018-05-27T12:35:51.059Z,4.60
2018-05-27T12:38:18.564Z,4.40
2018-05-27T12:40:46.055Z,4.47
2018-05-27T12:43:13.565Z,4.70
2018-05-27T12:45:42.572Z,4.53
2018-05-27T12:48:10.063Z,4.55
2018-05-27T12:50:37.617Z,4.62
2018-05-27T12:53:05.125Z,4.68
2018-05-27T12:55:32.626Z,4.30
2018-05-27T12:58:00.166Z,4.45
2018-05-27T13:00:28.434Z,4.40
2018-05-27T13:02:55.925Z,4.60
2018-05-27T13:05:23.480Z,4.47
2018-05-27T13:07:51.783Z,4.40
2018-05-27T13:10:19.282Z,4.90
2018-05-27T13:12:46.780Z,4.70
2018-05-27T13:15:14.288Z,4.55
2018-05-27T13:17:41.776Z,4.40
2018-05-27T13:20:10.042Z,5.10
2018-05-27T13:22:37.542Z,4.65
2018-05-27T13:25:05.087Z,4.62
2018-05-27T13:27:32.587Z,4.43
2018-05-27T13:30:00.131Z,4.40
2018-05-27T13:32:28.388Z,4.40
2018-05-27T13:34:55.889Z,4.57
2018-05-27T13:37:23.394Z,4.80
2018-05-27T13:39:50.908Z,4.70
2018-05-27T13:42:18.407Z,4.80
2018-05-27T13:44:45.910Z,4.70
2018-05-27T13:47:13.419Z,4.62
2018-05-27T13:49:41.707Z,4.47
2018-05-27T13:52:09.215Z,4.70
2018-05-27T13:54:36.730Z,5.53
2018-05-27T13:57:04.277Z,4.90
2018-05-27T13:59:31.786Z,4.55
2018-05-27T14:01:59.280Z,4.90
2018-05-27T14:04:27.551Z,5.05
2018-05-27T14:06:55.818Z,5.00
2018-05-27T14:09:23.509Z,4.82
2018-05-27T14:11:51.006Z,6.77
2018-05-27T14:14:18.513Z,10.20
2018-05-27T14:16:46.799Z,10.60
2018-05-27T14:19:14.311Z,8.85
2018-05-27T14:21:41.803Z,7.22
2018-05-27T14:24:10.079Z,6.33
2018-05-27T14:26:37.585Z,8.35
2018-05-27T14:29:05.094Z,10.20
2018-05-27T14:31:33.373Z,12.60
2018-05-27T14:34:01.640Z,10.40
2018-05-27T14:36:29.916Z,11.10
2018-05-27T14:38:58.215Z,10.30
2018-05-27T14:41:25.716Z,11.52
2018-05-27T14:43:53.322Z,11.77
2018-05-27T14:46:21.590Z,10.60
2018-05-27T14:48:49.847Z,10.90
2018-05-27T14:51:17.357Z,10.97
2018-05-27T14:53:44.866Z,12.60
2018-05-27T14:56:12.376Z,11.70
2018-05-27T14:58:39.887Z,12.10
2018-05-27T15:01:07.467Z,12.50
2018-05-27T15:03:35.725Z,14.13
2018-05-27T15:06:04.008Z,16.35
2018-05-27T15:08:32.295Z,15.75
2018-05-27T15:11:00.578Z,16.92
2018-05-27T15:13:28.086Z,16.27
2018-05-27T15:15:55.596Z,15.65
2018-05-27T15:18:23.142Z,14.60
2018-05-27T15:20:51.404Z,12.02
2018-05-27T15:23:18.902Z,14.40
2018-05-27T15:25:46.408Z,13.43
2018-05-27T15:28:13.922Z,14.07
2018-05-27T15:30:41.428Z,13.88
2018-05-27T15:33:09.731Z,12.98
2018-05-27T15:35:38.009Z,12.93
2018-05-27T15:38:06.292Z,12.20
2018-05-27T15:40:33.823Z,13.00
2018-05-27T15:43:02.097Z,12.88
2018-05-27T15:45:29.616Z,13.00
2018-05-27T15:47:57.125Z,12.68
2018-05-27T15:50:25.426Z,10.70
2018-05-27T15:52:52.974Z,11.12
2018-05-27T15:55:20.471Z,11.12
2018-05-27T15:57:47.988Z,11.45
2018-05-27T16:00:16.272Z,12.05
2018-05-27T16:02:43.802Z,12.30
2018-05-27T16:05:11.298Z,12.30
2018-05-27T16:07:38.832Z,11.97
2018-05-27T16:10:07.095Z,11.70
2018-05-27T16:12:35.366Z,11.87
2018-05-27T16:15:03.641Z,12.73
2018-05-27T16:17:31.142Z,13.87
2018-05-27T16:19:58.647Z,13.60
2018-05-27T16:22:26.163Z,14.10
2018-05-27T16:24:53.714Z,14.82
2018-05-27T16:27:21.214Z,15.35
2018-05-27T16:29:48.723Z,16.48
2018-05-27T16:32:16.225Z,15.63
2018-05-27T16:34:43.735Z,15.53
2018-05-27T16:37:11.240Z,16.08
2018-05-27T16:39:38.758Z,16.92
2018-05-27T16:42:06.270Z,16.50
2018-05-27T16:44:33.876Z,16.80
2018-05-27T16:47:01.394Z,17.08
2018-05-27T16:49:28.896Z,15.93
2018-05-27T16:51:56.403Z,15.13
2018-05-27T16:54:23.921Z,12.10
2018-05-27T16:56:51.427Z,10.10
2018-05-27T16:59:18.943Z,10.52
2018-05-27T17:01:46.450Z,11.60
2018-05-27T17:04:13.955Z,11.20
2018-05-27T17:06:41.455Z,11.60
2018-05-27T17:09:09.727Z,12.17
2018-05-27T17:11:37.224Z,12.40
2018-05-27T17:14:05.638Z,12.97
2018-05-27T17:16:33.882Z,12.97
2018-05-27T17:19:02.158Z,12.80
2018-05-27T17:21:30.436Z,13.13
2018-05-27T17:23:58.000Z,13.93
2018-05-27T17:26:25.491Z,14.20
2018-05-27T17:28:53.006Z,14.40
2018-05-27T17:31:21.284Z,15.05
2018-05-27T17:33:48.810Z,14.70
2018-05-27T17:36:16.327Z,20.60
2018-05-27T17:38:43.827Z,15.43
2018-05-27T17:41:11.355Z,14.93
2018-05-27T17:43:38.859Z,15.23
2018-05-27T17:46:07.158Z,15.13
2018-05-27T17:48:34.658Z,17.33
2018-05-27T17:51:02.175Z,15.70
2018-05-27T17:53:29.674Z,17.30
2018-05-27T17:55:57.194Z,17.37
2018-05-27T17:58:24.753Z,17.20
2018-05-27T18:00:52.262Z,23.33
2018-05-27T18:03:19.762Z,14.87
2018-05-27T18:05:47.323Z,16.98
2018-05-27T18:08:14.834Z,15.03
2018-05-27T18:10:42.354Z,15.85
2018-05-27T18:13:09.858Z,15.50
2018-05-27T18:15:37.364Z,16.60
2018-05-27T18:18:04.931Z,16.90
2018-05-27T18:20:32.479Z,16.40
2018-05-27T18:22:59.974Z,17.10
2018-05-27T18:25:27.474Z,16.80
2018-05-27T18:27:55.738Z,15.60
2018-05-27T18:30:23.274Z,15.52
2018-05-27T18:32:50.788Z,15.00
2018-05-27T18:35:18.291Z,15.60
2018-05-27T18:37:45.802Z,14.65
2018-05-27T18:40:13.306Z,14.83
2018-05-27T18:42:40.822Z,16.30
2018-05-27T18:45:08.326Z,15.68
2018-05-27T18:47:35.855Z,15.40
2018-05-27T18:50:03.381Z,15.95
2018-05-27T18:52:31.655Z,16.10
2018-05-27T18:54:59.956Z,15.43
2018-05-27T18:57:27.457Z,15.00
2018-05-27T18:59:54.951Z,15.20
2018-05-27T19:02:23.221Z,15.60
2018-05-27T19:04:51.490Z,14.90
2018-05-27T19:07:19.022Z,16.00
2018-05-27T19:09:46.518Z,15.85
2018-05-27T19:12:14.791Z,15.83
2018-05-27T19:14:43.071Z,15.00
2018-05-27T19:17:11.385Z,15.48
2018-05-27T19:19:39.730Z,14.60
2018-05-27T19:22:07.232Z,15.60
2018-05-27T19:24:34.743Z,14.02
2018-05-27T19:27:03.016Z,12.83
2018-05-27T19:29:31.295Z,13.75
2018-05-27T19:31:58.819Z,12.45
2018-05-27T19:34:26.327Z,11.93
2018-05-27T19:36:53.823Z,13.30
2018-05-27T19:39:21.322Z,13.70
2018-05-27T19:41:49.607Z,14.05
2018-05-27T19:44:17.115Z,14.40
2018-05-27T19:46:44.623Z,14.25
2018-05-27T19:49:12.935Z,13.70
2018-05-27T19:51:40.426Z,14.80
2018-05-27T19:54:07.940Z,14.55
2018-05-27T19:56:35.455Z,15.10
2018-05-27T19:59:02.952Z,15.40
2018-05-27T20:01:30.451Z,16.20
2018-05-27T20:03:57.989Z,15.95
2018-05-27T20:06:25.502Z,15.32
2018-05-27T20:08:53.787Z,15.48
2018-05-27T20:11:21.299Z,16.80
2018-05-27T20:13:48.802Z,16.87
2018-05-27T20:16:16.307Z,17.37
2018-05-27T20:18:43.823Z,17.42
2018-05-27T20:21:11.316Z,17.87
2018-05-27T20:23:38.872Z,17.73
2018-05-27T20:26:06.358Z,18.70
2018-05-27T20:28:33.859Z,17.65
2018-05-27T20:31:01.413Z,18.35
2018-05-27T20:33:28.964Z,19.40
2018-05-27T20:35:57.243Z,19.93
2018-05-27T20:38:25.525Z,20.10
2018-05-27T20:40:53.044Z,19.60
2018-05-27T20:43:20.559Z,19.50
2018-05-27T20:45:48.081Z,20.50
2018-05-27T20:48:16.363Z,20.30
2018-05-27T20:50:44.638Z,20.17
2018-05-27T20:53:12.931Z,22.08
2018-05-27T20:55:40.489Z,20.88
2018-05-27T20:58:08.056Z,20.65
2018-05-27T21:00:35.621Z,20.60
2018-05-27T21:03:03.121Z,20.02
2018-05-27T21:05:30.737Z,22.10
2018-05-27T21:07:58.246Z,21.12
2018-05-27T21:10:25.758Z,22.20
2018-05-27T21:12:53.255Z,22.10
2018-05-27T21:15:20.772Z,22.15
2018-05-27T21:17:48.313Z,23.73
2018-05-27T21:20:15.884Z,21.67
2018-05-27T21:22:43.428Z,23.38
2018-05-27T21:25:11.727Z,22.37
2018-05-27T21:27:39.230Z,22.05
2018-05-27T21:30:06.735Z,23.30
2018-05-27T21:32:34.264Z,22.80
2018-05-27T21:35:02.534Z,22.97
2018-05-27T21:37:30.812Z,23.38
2018-05-27T21:39:58.326Z,23.65
2018-05-27T21:42:25.824Z,22.60
2018-05-27T21:44:53.339Z,22.67
2018-05-27T21:47:20.847Z,22.48
2018-05-27T21:49:49.127Z,22.90
2018-05-27T21:52:17.411Z,22.25
2018-05-27T21:54:45.686Z,23.62
2018-05-27T21:57:13.959Z,22.90
2018-05-27T21:59:42.228Z,23.33
2018-05-27T22:02:10.502Z,23.27
2018-05-27T22:04:38.763Z,25.47
2018-05-27T22:07:06.355Z,23.70
2018-05-27T22:09:33.872Z,24.50
2018-05-27T22:12:01.392Z,25.15
2018-05-27T22:14:28.952Z,23.55
2018-05-27T22:16:56.479Z,22.70
2018-05-27T22:19:23.989Z,22.20
2018-05-27T22:21:51.523Z,22.80
2018-05-27T22:24:19.035Z,23.50
2018-05-27T22:26:46.547Z,23.20
2018-05-27T22:29:14.059Z,21.55
2018-05-27T22:31:41.564Z,21.75
2018-05-27T22:34:09.067Z,22.53
2018-05-27T22:36:36.594Z,21.43
2018-05-27T22:39:06.824Z,21.20
2018-05-27T22:41:34.336Z,21.70
2018-05-27T22:44:01.914Z,21.98
2018-05-27T22:46:29.466Z,21.45
2018-05-27T22:48:57.018Z,20.40
2018-05-27T22:51:24.523Z,21.90
2018-05-27T22:53:52.058Z,21.45
2018-05-27T22:56:19.579Z,20.88
2018-05-27T22:58:47.888Z,21.30
2018-05-27T23:01:15.507Z,21.70
2018-05-27T23:03:42.972Z,21.92
2018-05-27T23:06:11.231Z,20.00
2018-05-27T23:08:38.822Z,21.83
2018-05-27T23:11:06.333Z,21.10
2018-05-27T23:13:33.844Z,20.60
2018-05-27T23:16:01.361Z,19.90
2018-05-27T23:18:28.874Z,21.02
2018-05-27T23:20:56.394Z,20.40
2018-05-27T23:23:24.668Z,21.23
2018-05-27T23:25:52.949Z,21.67
2018-05-27T23:28:21.256Z,22.73
2018-05-27T23:30:48.772Z,22.40
2018-05-27T23:33:16.280Z,22.23
2018-05-27T23:35:43.803Z,23.60
2018-05-27T23:38:12.096Z,22.27
2018-05-27T23:40:39.608Z,23.73
2018-05-27T23:43:07.103Z,22.77
2018-05-27T23:45:34.627Z,23.10
2018-05-27T23:48:02.146Z,23.80
2018-05-27T23:50:29.700Z,23.08
2018-05-27T23:52:57.255Z,22.80
2018-05-27T23:55:24.955Z,23.35
2018-05-27T23:57:52.576Z,23.17
